KIND/IND METAR and TAF weather

Enter ICAO airport designator
Station Type Date Time Source
KIND METAR 2019/04/20 21:54 UTC NOAA

KIND 202154Z 02007KT 3SM -DZ BR FEW007 OVC025 07/06 A2978 RMK AO2 RAE39DZB44 SLP087 P0001 T00670056


Station Type Date Time Source
KIND Decoded METAR 2019/04/20 21:54 UTC NOAA

INDIANAPOLIS INTERNATIONAL AIRPORT , IN, United States (KIND) 39-43N 86-17W 242M
Apr 20, 2019 - 05:54 PM EDT / 2019.04.20 2154 UTC
Wind: from the NNE (020 degrees) at 8 MPH (7 KT):0
Visibility: 3 mile(s):0
Sky conditions: overcast
Weather: light drizzle; mist
Precipitation last hour: 0.01 inches
Temperature: 44.1 F (6.7 C)
Dew Point: 42.1 F (5.6 C)
Relative Humidity: 92%
Pressure (altimeter): 29.78 in. Hg (1008 hPa)
ob: KIND 202154Z 02007KT 3SM -DZ BR FEW007 OVC025 07/06 A2978 RMK AO2 RAE39DZB44 SLP087 P0001 T00670056
cycle: 22

Station Type Date Time Source
KIND TAF 2019/04/20 21:33 UTC NOAA

TAF
AMD KIND 202030Z 2021/2124 01010G18KT P6SM VCSH OVC020
FM202300 35008KT P6SM BKN019
FM210000 35007KT P6SM BKN021
FM210200 32006KT P6SM SCT035
FM211900 23005KT P6SM FEW200

Example: see airport list